Dundee, Texas
Current Conditions -  °F | °C
As of 1:15 PM on Saturday 20 Dec 2014 (Local Time) from KCWC Reporting Station
Overcast Overcast  
Wind Chill:   Ceiling: 1300
Heat Index:   Visibility: 10mi
Dew Point:   Wind: 8mph
Humidity: 83%   Direction: 150°SSE
Pressure: 30.21"   Gusts: NA
Location:  33.6107°N, 98.6955°W
Report Text: KCWC 201915Z AUTO 15007KT 10SM BKN013 BKN019 OVC027 07/05 A3021 RMK AO2 T00730046
Loading
Personal Weather Stations






























Interactive Weather Map New forecast layout! Learn more

10-Day Weather Forecast

Advertisements
Track Severe Weather on mobile